sensor_id;sensor_type;location;lat;lon;timestamp;temperature;humidity
41838;DHT22;27511;52.042;5.178;2023-07-16T00:00:49;22.00;99.90
41838;DHT22;27511;52.042;5.178;2023-07-16T00:03:15;22.00;99.90
41838;DHT22;27511;52.042;5.178;2023-07-16T00:05:40;22.00;99.90
41838;DHT22;27511;52.042;5.178;2023-07-16T00:08:06;22.00;99.90
41838;DHT22;27511;52.042;5.178;2023-07-16T00:10:35;21.80;99.90
41838;DHT22;27511;52.042;5.178;2023-07-16T00:13:01;21.90;99.90
41838;DHT22;27511;52.042;5.178;2023-07-16T00:15:26;21.90;99.90
41838;DHT22;27511;52.042;5.178;2023-07-16T00:17:52;21.90;99.90
41838;DHT22;27511;52.042;5.178;2023-07-16T00:20:18;21.80;99.90
41838;DHT22;27511;52.042;5.178;2023-07-16T00:22:43;21.90;99.90
41838;DHT22;27511;52.042;5.178;2023-07-16T00:25:09;22.00;99.90
41838;DHT22;27511;52.042;5.178;2023-07-16T00:27:34;22.00;99.90
41838;DHT22;27511;52.042;5.178;2023-07-16T00:30:00;22.00;99.90
41838;DHT22;27511;52.042;5.178;2023-07-16T00:32:25;21.90;99.90
41838;DHT22;27511;52.042;5.178;2023-07-16T00:34:51;22.00;99.90
41838;DHT22;27511;52.042;5.178;2023-07-16T00:37:16;21.70;99.90
41838;DHT22;27511;52.042;5.178;2023-07-16T00:39:41;21.60;99.90
41838;DHT22;27511;52.042;5.178;2023-07-16T00:42:07;21.70;99.90
41838;DHT22;27511;52.042;5.178;2023-07-16T00:44:32;21.70;99.90
41838;DHT22;27511;52.042;5.178;2023-07-16T00:46:58;21.70;99.90
41838;DHT22;27511;52.042;5.178;2023-07-16T00:49:24;21.70;99.90
41838;DHT22;27511;52.042;5.178;2023-07-16T00:51:49;21.70;99.90
41838;DHT22;27511;52.042;5.178;2023-07-16T00:54:16;21.70;99.90
41838;DHT22;27511;52.042;5.178;2023-07-16T00:56:41;21.80;99.90
41838;DHT22;27511;52.042;5.178;2023-07-16T00:59:07;21.70;99.90
41838;DHT22;27511;52.042;5.178;2023-07-16T01:01:32;21.70;99.90
41838;DHT22;27511;52.042;5.178;2023-07-16T01:03:58;21.60;99.90
41838;DHT22;27511;52.042;5.178;2023-07-16T01:09:01;21.70;99.90
41838;DHT22;27511;52.042;5.178;2023-07-16T01:11:28;21.70;99.90
41838;DHT22;27511;52.042;5.178;2023-07-16T01:13:54;21.70;99.90
41838;DHT22;27511;52.042;5.178;2023-07-16T01:16:20;21.70;99.90
41838;DHT22;27511;52.042;5.178;2023-07-16T01:18:46;21.70;99.90
41838;DHT22;27511;52.042;5.178;2023-07-16T01:21:12;21.80;99.90
41838;DHT22;27511;52.042;5.178;2023-07-16T01:23:39;21.60;99.90
41838;DHT22;27511;52.042;5.178;2023-07-16T01:31:04;21.60;99.90
41838;DHT22;27511;52.042;5.178;2023-07-16T01:33:31;21.60;99.90
41838;DHT22;27511;52.042;5.178;2023-07-16T01:35:57;21.70;99.90
41838;DHT22;27511;52.042;5.178;2023-07-16T01:38:22;21.70;99.90
41838;DHT22;27511;52.042;5.178;2023-07-16T01:40:48;21.60;99.90
41838;DHT22;27511;52.042;5.178;2023-07-16T01:43:14;21.30;99.90
41838;DHT22;27511;52.042;5.178;2023-07-16T01:45:39;21.30;99.90
41838;DHT22;27511;52.042;5.178;2023-07-16T01:48:16;21.30;99.90
41838;DHT22;27511;52.042;5.178;2023-07-16T01:50:46;21.40;99.90
41838;DHT22;27511;52.042;5.178;2023-07-16T01:53:12;21.30;99.90
41838;DHT22;27511;52.042;5.178;2023-07-16T01:55:37;21.40;99.90
41838;DHT22;27511;52.042;5.178;2023-07-16T01:58:02;21.40;99.90
41838;DHT22;27511;52.042;5.178;2023-07-16T02:00:28;21.40;99.90
41838;DHT22;27511;52.042;5.178;2023-07-16T02:02:54;21.30;99.90
41838;DHT22;27511;52.042;5.178;2023-07-16T02:05:19;21.30;99.90
41838;DHT22;27511;52.042;5.178;2023-07-16T02:07:45;21.20;99.90
41838;DHT22;27511;52.042;5.178;2023-07-16T02:10:10;21.30;99.90
41838;DHT22;27511;52.042;5.178;2023-07-16T02:12:35;21.40;99.90
41838;DHT22;27511;52.042;5.178;2023-07-16T02:15:01;21.40;99.90
41838;DHT22;27511;52.042;5.178;2023-07-16T02:17:27;21.40;99.90
41838;DHT22;27511;52.042;5.178;2023-07-16T02:19:52;21.40;99.90
41838;DHT22;27511;52.042;5.178;2023-07-16T02:22:18;21.40;99.90
41838;DHT22;27511;52.042;5.178;2023-07-16T02:24:43;21.30;99.90
41838;DHT22;27511;52.042;5.178;2023-07-16T02:27:09;21.40;99.90
41838;DHT22;27511;52.042;5.178;2023-07-16T02:29:34;21.50;99.90
41838;DHT22;27511;52.042;5.178;2023-07-16T02:32:00;21.40;99.90
41838;DHT22;27511;52.042;5.178;2023-07-16T02:34:25;21.40;99.90
41838;DHT22;27511;52.042;5.178;2023-07-16T02:36:51;21.50;99.90
41838;DHT22;27511;52.042;5.178;2023-07-16T02:39:16;21.40;99.90
41838;DHT22;27511;52.042;5.178;2023-07-16T02:41:41;21.50;99.90
41838;DHT22;27511;52.042;5.178;2023-07-16T02:44:07;21.50;99.90
41838;DHT22;27511;52.042;5.178;2023-07-16T02:46:33;21.50;99.90
41838;DHT22;27511;52.042;5.178;2023-07-16T02:48:59;21.50;99.90
41838;DHT22;27511;52.042;5.178;2023-07-16T02:51:24;21.40;99.90
41838;DHT22;27511;52.042;5.178;2023-07-16T02:53:50;21.50;99.90
41838;DHT22;27511;52.042;5.178;2023-07-16T02:56:15;21.40;99.90
41838;DHT22;27511;52.042;5.178;2023-07-16T02:58:41;21.40;99.90
41838;DHT22;27511;52.042;5.178;2023-07-16T03:01:07;21.40;99.90
41838;DHT22;27511;52.042;5.178;2023-07-16T03:03:32;21.30;99.90
41838;DHT22;27511;52.042;5.178;2023-07-16T03:05:58;21.40;99.90
41838;DHT22;27511;52.042;5.178;2023-07-16T03:08:23;21.30;99.90
41838;DHT22;27511;52.042;5.178;2023-07-16T03:10:51;21.20;99.90
41838;DHT22;27511;52.042;5.178;2023-07-16T03:13:17;21.20;99.90
41838;DHT22;27511;52.042;5.178;2023-07-16T03:15:42;21.40;99.90
41838;DHT22;27511;52.042;5.178;2023-07-16T03:18:08;21.40;99.90
41838;DHT22;27511;52.042;5.178;2023-07-16T03:20:33;21.30;99.90
41838;DHT22;27511;52.042;5.178;2023-07-16T03:22:59;21.30;99.90
41838;DHT22;27511;52.042;5.178;2023-07-16T03:25:24;21.20;99.90
41838;DHT22;27511;52.042;5.178;2023-07-16T03:27:49;21.30;99.90
41838;DHT22;27511;52.042;5.178;2023-07-16T03:30:15;21.20;99.90
41838;DHT22;27511;52.042;5.178;2023-07-16T03:32:40;21.30;99.90
41838;DHT22;27511;52.042;5.178;2023-07-16T03:35:06;21.20;99.90
41838;DHT22;27511;52.042;5.178;2023-07-16T03:37:31;21.20;99.90
41838;DHT22;27511;52.042;5.178;2023-07-16T03:40:01;21.30;99.90
41838;DHT22;27511;52.042;5.178;2023-07-16T03:42:36;21.20;99.90
41838;DHT22;27511;52.042;5.178;2023-07-16T03:45:02;21.10;99.90
41838;DHT22;27511;52.042;5.178;2023-07-16T03:47:27;20.90;99.90
41838;DHT22;27511;52.042;5.178;2023-07-16T03:49:53;20.90;99.90
41838;DHT22;27511;52.042;5.178;2023-07-16T03:52:18;20.90;99.90
41838;DHT22;27511;52.042;5.178;2023-07-16T03:54:44;21.00;99.90
41838;DHT22;27511;52.042;5.178;2023-07-16T03:57:09;21.00;99.90
41838;DHT22;27511;52.042;5.178;2023-07-16T03:59:35;20.90;99.90
41838;DHT22;27511;52.042;5.178;2023-07-16T04:02:00;20.80;99.90
41838;DHT22;27511;52.042;5.178;2023-07-16T04:04:25;20.70;99.90
41838;DHT22;27511;52.042;5.178;2023-07-16T04:06:51;20.70;99.90
41838;DHT22;27511;52.042;5.178;2023-07-16T04:09:16;20.70;99.90
41838;DHT22;27511;52.042;5.178;2023-07-16T04:11:42;20.70;99.90
41838;DHT22;27511;52.042;5.178;2023-07-16T04:14:07;20.70;99.90
41838;DHT22;27511;52.042;5.178;2023-07-16T04:16:33;20.60;99.90
41838;DHT22;27511;52.042;5.178;2023-07-16T04:18:58;20.60;99.90
41838;DHT22;27511;52.042;5.178;2023-07-16T04:21:24;20.70;99.90
41838;DHT22;27511;52.042;5.178;2023-07-16T04:23:49;20.80;99.90
41838;DHT22;27511;52.042;5.178;2023-07-16T04:26:15;20.70;99.90
41838;DHT22;27511;52.042;5.178;2023-07-16T04:28:40;20.60;99.90
41838;DHT22;27511;52.042;5.178;2023-07-16T04:31:06;20.50;99.90
41838;DHT22;27511;52.042;5.178;2023-07-16T04:33:31;20.40;99.90
41838;DHT22;27511;52.042;5.178;2023-07-16T04:35:57;20.50;99.90
41838;DHT22;27511;52.042;5.178;2023-07-16T04:38:22;20.60;99.90
41838;DHT22;27511;52.042;5.178;2023-07-16T04:40:48;20.60;99.90
41838;DHT22;27511;52.042;5.178;2023-07-16T04:43:13;20.60;99.90
41838;DHT22;27511;52.042;5.178;2023-07-16T04:45:39;20.50;99.90
41838;DHT22;27511;52.042;5.178;2023-07-16T04:48:05;20.60;99.90
41838;DHT22;27511;52.042;5.178;2023-07-16T04:50:30;20.70;99.90
41838;DHT22;27511;52.042;5.178;2023-07-16T04:52:56;20.50;99.90
41838;DHT22;27511;52.042;5.178;2023-07-16T04:55:21;20.40;99.90
41838;DHT22;27511;52.042;5.178;2023-07-16T04:57:47;20.50;99.90
41838;DHT22;27511;52.042;5.178;2023-07-16T05:00:12;20.50;99.90
41838;DHT22;27511;52.042;5.178;2023-07-16T05:02:38;20.50;99.90
41838;DHT22;27511;52.042;5.178;2023-07-16T05:05:03;20.50;99.90
41838;DHT22;27511;52.042;5.178;2023-07-16T05:07:29;20.70;99.90
41838;DHT22;27511;52.042;5.178;2023-07-16T05:09:54;20.70;99.90
41838;DHT22;27511;52.042;5.178;2023-07-16T05:12:20;20.60;99.90
41838;DHT22;27511;52.042;5.178;2023-07-16T05:14:46;20.70;99.90
41838;DHT22;27511;52.042;5.178;2023-07-16T05:17:13;20.70;99.90
41838;DHT22;27511;52.042;5.178;2023-07-16T05:19:38;20.80;99.90
41838;DHT22;27511;52.042;5.178;2023-07-16T05:22:04;21.00;99.90
41838;DHT22;27511;52.042;5.178;2023-07-16T05:24:30;20.90;99.90
41838;DHT22;27511;52.042;5.178;2023-07-16T05:26:55;20.90;99.90
41838;DHT22;27511;52.042;5.178;2023-07-16T05:29:21;20.90;99.90
41838;DHT22;27511;52.042;5.178;2023-07-16T05:31:46;20.70;99.90
41838;DHT22;27511;52.042;5.178;2023-07-16T05:34:12;20.70;99.90
41838;DHT22;27511;52.042;5.178;2023-07-16T05:36:38;20.70;99.90
41838;DHT22;27511;52.042;5.178;2023-07-16T05:39:03;20.70;99.90
41838;DHT22;27511;52.042;5.178;2023-07-16T05:41:29;20.60;99.90
41838;DHT22;27511;52.042;5.178;2023-07-16T05:43:54;20.70;99.90
41838;DHT22;27511;52.042;5.178;2023-07-16T05:46:19;20.80;99.90
41838;DHT22;27511;52.042;5.178;2023-07-16T05:48:45;20.80;99.90
41838;DHT22;27511;52.042;5.178;2023-07-16T05:51:10;20.80;99.90
41838;DHT22;27511;52.042;5.178;2023-07-16T05:53:36;20.80;99.90
41838;DHT22;27511;52.042;5.178;2023-07-16T05:56:01;20.80;99.90
41838;DHT22;27511;52.042;5.178;2023-07-16T05:58:28;20.70;99.90
41838;DHT22;27511;52.042;5.178;2023-07-16T06:00:54;20.80;99.90
41838;DHT22;27511;52.042;5.178;2023-07-16T06:03:20;20.80;99.90
41838;DHT22;27511;52.042;5.178;2023-07-16T06:05:45;20.80;99.90
41838;DHT22;27511;52.042;5.178;2023-07-16T06:08:11;20.90;99.90
41838;DHT22;27511;52.042;5.178;2023-07-16T06:10:37;20.80;99.90
41838;DHT22;27511;52.042;5.178;2023-07-16T06:13:04;20.80;99.90
41838;DHT22;27511;52.042;5.178;2023-07-16T06:15:29;20.80;99.90
41838;DHT22;27511;52.042;5.178;2023-07-16T06:17:55;20.80;99.90
41838;DHT22;27511;52.042;5.178;2023-07-16T06:20:20;20.80;99.90
41838;DHT22;27511;52.042;5.178;2023-07-16T06:22:46;20.80;99.90
41838;DHT22;27511;52.042;5.178;2023-07-16T06:25:11;20.80;99.90
41838;DHT22;27511;52.042;5.178;2023-07-16T06:27:38;20.90;99.90
41838;DHT22;27511;52.042;5.178;2023-07-16T06:30:04;20.80;99.90
41838;DHT22;27511;52.042;5.178;2023-07-16T06:32:31;20.90;99.90
41838;DHT22;27511;52.042;5.178;2023-07-16T06:34:56;21.00;99.90
41838;DHT22;27511;52.042;5.178;2023-07-16T06:37:22;21.00;99.90
41838;DHT22;27511;52.042;5.178;2023-07-16T06:39:49;20.80;99.90
41838;DHT22;27511;52.042;5.178;2023-07-16T06:42:14;20.70;99.90
41838;DHT22;27511;52.042;5.178;2023-07-16T06:44:40;20.90;99.90
41838;DHT22;27511;52.042;5.178;2023-07-16T06:47:05;21.00;99.90
41838;DHT22;27511;52.042;5.178;2023-07-16T06:49:31;20.80;99.90
41838;DHT22;27511;52.042;5.178;2023-07-16T06:51:56;21.00;99.90
41838;DHT22;27511;52.042;5.178;2023-07-16T06:54:22;21.20;99.90
41838;DHT22;27511;52.042;5.178;2023-07-16T06:56:47;21.10;99.90
41838;DHT22;27511;52.042;5.178;2023-07-16T06:59:13;21.30;99.90
41838;DHT22;27511;52.042;5.178;2023-07-16T07:01:38;21.30;99.90
41838;DHT22;27511;52.042;5.178;2023-07-16T07:04:04;21.50;99.90
41838;DHT22;27511;52.042;5.178;2023-07-16T07:06:29;21.50;99.90
41838;DHT22;27511;52.042;5.178;2023-07-16T07:08:55;21.60;99.90
41838;DHT22;27511;52.042;5.178;2023-07-16T07:11:20;21.70;99.90
41838;DHT22;27511;52.042;5.178;2023-07-16T07:13:46;21.50;99.90
41838;DHT22;27511;52.042;5.178;2023-07-16T07:16:11;21.40;99.90
41838;DHT22;27511;52.042;5.178;2023-07-16T07:18:37;21.50;99.90
41838;DHT22;27511;52.042;5.178;2023-07-16T07:21:02;21.50;99.90
41838;DHT22;27511;52.042;5.178;2023-07-16T07:23:28;21.50;99.90
41838;DHT22;27511;52.042;5.178;2023-07-16T07:25:53;21.40;99.90
41838;DHT22;27511;52.042;5.178;2023-07-16T07:28:19;21.50;99.90
41838;DHT22;27511;52.042;5.178;2023-07-16T07:30:45;21.30;99.90
41838;DHT22;27511;52.042;5.178;2023-07-16T07:33:10;21.20;99.90
41838;DHT22;27511;52.042;5.178;2023-07-16T07:35:36;21.30;99.90
41838;DHT22;27511;52.042;5.178;2023-07-16T07:38:01;21.40;99.90
41838;DHT22;27511;52.042;5.178;2023-07-16T07:40:27;21.50;99.90
41838;DHT22;27511;52.042;5.178;2023-07-16T07:42:52;21.50;99.90
41838;DHT22;27511;52.042;5.178;2023-07-16T07:45:18;21.60;99.90
41838;DHT22;27511;52.042;5.178;2023-07-16T07:47:43;21.70;99.90
41838;DHT22;27511;52.042;5.178;2023-07-16T07:50:09;21.50;99.90
41838;DHT22;27511;52.042;5.178;2023-07-16T07:52:35;21.40;99.90
41838;DHT22;27511;52.042;5.178;2023-07-16T07:55:00;21.20;99.90
41838;DHT22;27511;52.042;5.178;2023-07-16T07:57:26;21.50;99.90
41838;DHT22;27511;52.042;5.178;2023-07-16T07:59:51;21.50;99.90
41838;DHT22;27511;52.042;5.178;2023-07-16T08:02:21;21.70;99.90
41838;DHT22;27511;52.042;5.178;2023-07-16T08:04:52;21.80;99.90
41838;DHT22;27511;52.042;5.178;2023-07-16T08:07:18;21.80;99.90
41838;DHT22;27511;52.042;5.178;2023-07-16T08:09:43;21.70;99.90
41838;DHT22;27511;52.042;5.178;2023-07-16T08:12:09;21.70;99.90
41838;DHT22;27511;52.042;5.178;2023-07-16T08:14:34;21.60;99.90
41838;DHT22;27511;52.042;5.178;2023-07-16T08:17:00;21.80;99.90
41838;DHT22;27511;52.042;5.178;2023-07-16T08:19:25;21.90;99.90
41838;DHT22;27511;52.042;5.178;2023-07-16T08:21:51;21.80;99.90
41838;DHT22;27511;52.042;5.178;2023-07-16T08:24:16;21.80;99.90
41838;DHT22;27511;52.042;5.178;2023-07-16T08:26:42;21.80;99.90
41838;DHT22;27511;52.042;5.178;2023-07-16T08:29:07;21.80;99.90
41838;DHT22;27511;52.042;5.178;2023-07-16T08:31:33;22.00;99.90
41838;DHT22;27511;52.042;5.178;2023-07-16T08:33:58;21.90;99.90
41838;DHT22;27511;52.042;5.178;2023-07-16T08:36:24;21.90;99.90
41838;DHT22;27511;52.042;5.178;2023-07-16T08:38:49;22.00;99.90
41838;DHT22;27511;52.042;5.178;2023-07-16T08:41:15;22.10;99.90
41838;DHT22;27511;52.042;5.178;2023-07-16T08:43:40;22.00;99.90
41838;DHT22;27511;52.042;5.178;2023-07-16T08:46:06;22.00;99.90
41838;DHT22;27511;52.042;5.178;2023-07-16T08:48:32;22.00;99.90
41838;DHT22;27511;52.042;5.178;2023-07-16T08:50:58;21.90;99.90
41838;DHT22;27511;52.042;5.178;2023-07-16T08:53:24;21.90;99.90
41838;DHT22;27511;52.042;5.178;2023-07-16T08:55:49;21.80;99.90
41838;DHT22;27511;52.042;5.178;2023-07-16T08:58:15;22.00;99.90
41838;DHT22;27511;52.042;5.178;2023-07-16T09:00:44;22.20;99.90
41838;DHT22;27511;52.042;5.178;2023-07-16T09:03:13;22.20;99.90
41838;DHT22;27511;52.042;5.178;2023-07-16T09:05:39;22.30;99.90
41838;DHT22;27511;52.042;5.178;2023-07-16T09:08:05;22.30;99.90
41838;DHT22;27511;52.042;5.178;2023-07-16T09:10:31;22.30;99.90
41838;DHT22;27511;52.042;5.178;2023-07-16T09:12:57;22.30;99.90
41838;DHT22;27511;52.042;5.178;2023-07-16T09:15:23;22.20;99.90
41838;DHT22;27511;52.042;5.178;2023-07-16T09:17:49;22.20;99.90
41838;DHT22;27511;52.042;5.178;2023-07-16T09:20:15;22.10;99.90
41838;DHT22;27511;52.042;5.178;2023-07-16T09:22:41;22.20;99.90
41838;DHT22;27511;52.042;5.178;2023-07-16T09:25:06;22.40;99.90
41838;DHT22;27511;52.042;5.178;2023-07-16T09:27:32;22.40;99.90
41838;DHT22;27511;52.042;5.178;2023-07-16T09:29:57;22.40;99.90
41838;DHT22;27511;52.042;5.178;2023-07-16T09:32:36;22.30;99.90
41838;DHT22;27511;52.042;5.178;2023-07-16T09:35:06;22.40;99.90
41838;DHT22;27511;52.042;5.178;2023-07-16T09:37:32;22.30;99.90
41838;DHT22;27511;52.042;5.178;2023-07-16T09:39:57;22.20;99.90
41838;DHT22;27511;52.042;5.178;2023-07-16T09:42:23;22.40;99.90
41838;DHT22;27511;52.042;5.178;2023-07-16T09:44:49;22.50;99.90
41838;DHT22;27511;52.042;5.178;2023-07-16T09:47:14;22.60;99.90
41838;DHT22;27511;52.042;5.178;2023-07-16T09:49:40;22.50;99.90
41838;DHT22;27511;52.042;5.178;2023-07-16T09:52:05;22.50;99.90
41838;DHT22;27511;52.042;5.178;2023-07-16T09:54:32;22.50;99.90
41838;DHT22;27511;52.042;5.178;2023-07-16T09:56:58;22.50;99.90
41838;DHT22;27511;52.042;5.178;2023-07-16T09:59:25;22.50;99.90
41838;DHT22;27511;52.042;5.178;2023-07-16T10:01:52;22.60;99.90
41838;DHT22;27511;52.042;5.178;2023-07-16T10:04:19;22.50;99.90
41838;DHT22;27511;52.042;5.178;2023-07-16T10:06:55;22.60;99.90
41838;DHT22;27511;52.042;5.178;2023-07-16T10:14:39;22.80;99.90
41838;DHT22;27511;52.042;5.178;2023-07-16T10:17:05;22.70;99.90
41838;DHT22;27511;52.042;5.178;2023-07-16T10:19:30;22.80;99.90
41838;DHT22;27511;52.042;5.178;2023-07-16T10:21:56;22.70;99.90
41838;DHT22;27511;52.042;5.178;2023-07-16T10:24:21;22.80;99.90
41838;DHT22;27511;52.042;5.178;2023-07-16T10:26:52;22.60;99.90
41838;DHT22;27511;52.042;5.178;2023-07-16T10:29:17;22.70;99.90
41838;DHT22;27511;52.042;5.178;2023-07-16T10:31:43;22.70;99.90
41838;DHT22;27511;52.042;5.178;2023-07-16T10:34:10;22.70;99.90
41838;DHT22;27511;52.042;5.178;2023-07-16T10:36:37;22.80;99.90
41838;DHT22;27511;52.042;5.178;2023-07-16T10:39:03;23.00;99.90
41838;DHT22;27511;52.042;5.178;2023-07-16T10:41:29;23.10;99.90
41838;DHT22;27511;52.042;5.178;2023-07-16T10:43:55;22.90;99.90
41838;DHT22;27511;52.042;5.178;2023-07-16T10:46:21;23.10;99.90
41838;DHT22;27511;52.042;5.178;2023-07-16T10:48:47;23.30;99.90
41838;DHT22;27511;52.042;5.178;2023-07-16T10:51:16;23.20;99.90
41838;DHT22;27511;52.042;5.178;2023-07-16T10:53:44;23.30;99.90
41838;DHT22;27511;52.042;5.178;2023-07-16T10:56:10;23.40;99.90
41838;DHT22;27511;52.042;5.178;2023-07-16T10:58:36;23.50;99.90
41838;DHT22;27511;52.042;5.178;2023-07-16T11:01:02;23.50;99.90
41838;DHT22;27511;52.042;5.178;2023-07-16T11:03:27;23.30;99.90
41838;DHT22;27511;52.042;5.178;2023-07-16T11:05:53;23.40;99.90
41838;DHT22;27511;52.042;5.178;2023-07-16T11:08:25;23.40;99.90
41838;DHT22;27511;52.042;5.178;2023-07-16T11:10:54;23.30;99.90
41838;DHT22;27511;52.042;5.178;2023-07-16T11:13:20;23.30;99.90
41838;DHT22;27511;52.042;5.178;2023-07-16T11:15:49;23.30;99.90
41838;DHT22;27511;52.042;5.178;2023-07-16T11:18:15;23.30;99.90
41838;DHT22;27511;52.042;5.178;2023-07-16T11:20:40;23.20;99.90
41838;DHT22;27511;52.042;5.178;2023-07-16T11:23:06;23.20;99.90
41838;DHT22;27511;52.042;5.178;2023-07-16T11:25:35;23.20;99.90
41838;DHT22;27511;52.042;5.178;2023-07-16T11:28:00;23.40;99.90
41838;DHT22;27511;52.042;5.178;2023-07-16T11:30:26;23.30;99.90
41838;DHT22;27511;52.042;5.178;2023-07-16T11:32:53;23.40;99.90
41838;DHT22;27511;52.042;5.178;2023-07-16T11:35:19;23.50;99.90
41838;DHT22;27511;52.042;5.178;2023-07-16T11:37:45;23.50;99.90
41838;DHT22;27511;52.042;5.178;2023-07-16T11:40:14;23.50;99.90
41838;DHT22;27511;52.042;5.178;2023-07-16T11:42:40;23.70;99.90
41838;DHT22;27511;52.042;5.178;2023-07-16T11:45:14;23.60;99.90
41838;DHT22;27511;52.042;5.178;2023-07-16T11:47:40;23.60;99.90
41838;DHT22;27511;52.042;5.178;2023-07-16T11:50:05;23.50;99.90
41838;DHT22;27511;52.042;5.178;2023-07-16T11:52:31;23.40;99.90
41838;DHT22;27511;52.042;5.178;2023-07-16T11:54:57;23.40;99.90
41838;DHT22;27511;52.042;5.178;2023-07-16T11:57:24;23.40;99.90
41838;DHT22;27511;52.042;5.178;2023-07-16T11:59:50;23.40;99.90
41838;DHT22;27511;52.042;5.178;2023-07-16T12:02:16;23.30;99.90
41838;DHT22;27511;52.042;5.178;2023-07-16T12:04:41;23.30;99.90
41838;DHT22;27511;52.042;5.178;2023-07-16T12:07:07;23.50;99.90
41838;DHT22;27511;52.042;5.178;2023-07-16T12:09:33;23.50;99.90
41838;DHT22;27511;52.042;5.178;2023-07-16T12:11:59;23.60;99.90
41838;DHT22;27511;52.042;5.178;2023-07-16T12:14:24;23.50;99.90
41838;DHT22;27511;52.042;5.178;2023-07-16T12:16:50;23.60;99.90
41838;DHT22;27511;52.042;5.178;2023-07-16T12:19:15;23.80;99.90
41838;DHT22;27511;52.042;5.178;2023-07-16T12:21:41;23.80;99.90
41838;DHT22;27511;52.042;5.178;2023-07-16T12:24:06;23.60;99.90
41838;DHT22;27511;52.042;5.178;2023-07-16T12:26:32;23.90;99.90
41838;DHT22;27511;52.042;5.178;2023-07-16T12:28:57;24.00;99.90
41838;DHT22;27511;52.042;5.178;2023-07-16T12:31:22;24.00;99.90
41838;DHT22;27511;52.042;5.178;2023-07-16T12:33:48;24.10;99.90
41838;DHT22;27511;52.042;5.178;2023-07-16T12:36:13;24.20;99.90
41838;DHT22;27511;52.042;5.178;2023-07-16T12:38:39;24.30;99.90
41838;DHT22;27511;52.042;5.178;2023-07-16T12:41:05;24.30;99.90
41838;DHT22;27511;52.042;5.178;2023-07-16T12:43:31;24.40;99.90
41838;DHT22;27511;52.042;5.178;2023-07-16T12:46:02;24.20;99.90
41838;DHT22;27511;52.042;5.178;2023-07-16T12:48:33;24.40;99.90
41838;DHT22;27511;52.042;5.178;2023-07-16T12:50:58;24.60;99.90
41838;DHT22;27511;52.042;5.178;2023-07-16T12:53:24;24.90;99.90
41838;DHT22;27511;52.042;5.178;2023-07-16T12:55:50;24.90;99.90
41838;DHT22;27511;52.042;5.178;2023-07-16T12:58:15;25.00;99.90
41838;DHT22;27511;52.042;5.178;2023-07-16T13:00:41;25.00;99.90
41838;DHT22;27511;52.042;5.178;2023-07-16T13:03:06;24.90;99.90
41838;DHT22;27511;52.042;5.178;2023-07-16T13:05:35;25.00;99.90
41838;DHT22;27511;52.042;5.178;2023-07-16T13:08:00;25.10;99.90
41838;DHT22;27511;52.042;5.178;2023-07-16T13:10:26;25.10;99.90
41838;DHT22;27511;52.042;5.178;2023-07-16T13:12:51;25.20;99.90
41838;DHT22;27511;52.042;5.178;2023-07-16T13:15:17;25.20;99.90
41838;DHT22;27511;52.042;5.178;2023-07-16T13:17:42;25.20;99.90
41838;DHT22;27511;52.042;5.178;2023-07-16T13:20:08;25.20;99.90
41838;DHT22;27511;52.042;5.178;2023-07-16T13:22:35;25.30;99.90
41838;DHT22;27511;52.042;5.178;2023-07-16T13:25:00;25.20;99.90
41838;DHT22;27511;52.042;5.178;2023-07-16T13:27:26;25.20;99.90
41838;DHT22;27511;52.042;5.178;2023-07-16T13:29:51;25.10;99.90
41838;DHT22;27511;52.042;5.178;2023-07-16T13:32:17;24.90;99.90
41838;DHT22;27511;52.042;5.178;2023-07-16T13:34:42;25.10;99.90
41838;DHT22;27511;52.042;5.178;2023-07-16T13:37:08;25.20;99.90
41838;DHT22;27511;52.042;5.178;2023-07-16T13:39:33;25.40;99.90
41838;DHT22;27511;52.042;5.178;2023-07-16T13:41:59;25.60;99.90
41838;DHT22;27511;52.042;5.178;2023-07-16T13:44:24;25.70;99.90
41838;DHT22;27511;52.042;5.178;2023-07-16T13:46:49;25.90;99.90
41838;DHT22;27511;52.042;5.178;2023-07-16T13:49:15;26.00;99.90
41838;DHT22;27511;52.042;5.178;2023-07-16T13:51:40;26.10;99.90
41838;DHT22;27511;52.042;5.178;2023-07-16T13:54:06;26.10;99.90
41838;DHT22;27511;52.042;5.178;2023-07-16T13:56:31;26.30;99.90
41838;DHT22;27511;52.042;5.178;2023-07-16T13:58:57;26.40;99.90
41838;DHT22;27511;52.042;5.178;2023-07-16T14:01:23;26.30;99.90
41838;DHT22;27511;52.042;5.178;2023-07-16T14:03:48;26.40;99.90
41838;DHT22;27511;52.042;5.178;2023-07-16T14:06:14;26.50;99.90
41838;DHT22;27511;52.042;5.178;2023-07-16T14:08:39;26.50;99.90
41838;DHT22;27511;52.042;5.178;2023-07-16T14:11:05;26.60;99.90
41838;DHT22;27511;52.042;5.178;2023-07-16T14:13:30;26.60;99.90
41838;DHT22;27511;52.042;5.178;2023-07-16T14:15:56;26.60;99.90
41838;DHT22;27511;52.042;5.178;2023-07-16T14:18:21;26.50;99.90
41838;DHT22;27511;52.042;5.178;2023-07-16T14:20:47;26.60;99.90
41838;DHT22;27511;52.042;5.178;2023-07-16T14:23:12;26.60;99.90
41838;DHT22;27511;52.042;5.178;2023-07-16T14:25:37;26.60;99.90
41838;DHT22;27511;52.042;5.178;2023-07-16T14:28:03;26.40;99.90
41838;DHT22;27511;52.042;5.178;2023-07-16T14:30:29;26.60;99.90
41838;DHT22;27511;52.042;5.178;2023-07-16T14:32:55;26.60;99.90
41838;DHT22;27511;52.042;5.178;2023-07-16T14:35:20;26.70;99.90
41838;DHT22;27511;52.042;5.178;2023-07-16T14:37:46;26.70;99.90
41838;DHT22;27511;52.042;5.178;2023-07-16T14:40:12;26.80;99.90
41838;DHT22;27511;52.042;5.178;2023-07-16T14:42:37;26.90;99.90
41838;DHT22;27511;52.042;5.178;2023-07-16T14:45:03;26.80;99.90
41838;DHT22;27511;52.042;5.178;2023-07-16T14:47:30;26.70;99.90
41838;DHT22;27511;52.042;5.178;2023-07-16T14:49:56;26.60;99.90
41838;DHT22;27511;52.042;5.178;2023-07-16T14:52:21;26.40;99.90
41838;DHT22;27511;52.042;5.178;2023-07-16T14:54:47;26.20;99.90
41838;DHT22;27511;52.042;5.178;2023-07-16T14:57:12;26.00;99.90
41838;DHT22;27511;52.042;5.178;2023-07-16T14:59:37;25.80;99.90
41838;DHT22;27511;52.042;5.178;2023-07-16T15:02:03;25.80;99.90
41838;DHT22;27511;52.042;5.178;2023-07-16T15:04:29;25.70;99.90
41838;DHT22;27511;52.042;5.178;2023-07-16T15:06:54;25.80;99.90
41838;DHT22;27511;52.042;5.178;2023-07-16T15:09:21;25.80;99.90
41838;DHT22;27511;52.042;5.178;2023-07-16T15:11:47;25.80;99.90
41838;DHT22;27511;52.042;5.178;2023-07-16T15:14:12;25.90;99.90
41838;DHT22;27511;52.042;5.178;2023-07-16T15:16:38;26.10;99.90
41838;DHT22;27511;52.042;5.178;2023-07-16T15:19:03;26.20;99.90
41838;DHT22;27511;52.042;5.178;2023-07-16T15:21:29;26.30;99.90
41838;DHT22;27511;52.042;5.178;2023-07-16T15:23:55;26.20;99.90
41838;DHT22;27511;52.042;5.178;2023-07-16T15:26:20;26.00;99.90
41838;DHT22;27511;52.042;5.178;2023-07-16T15:28:46;26.00;99.90
41838;DHT22;27511;52.042;5.178;2023-07-16T15:31:11;26.30;99.90
41838;DHT22;27511;52.042;5.178;2023-07-16T15:33:39;26.30;99.90